sensor_id;sensor_type;location;lat;lon;timestamp;temperature;humidity
8152;DHT22;4117;53.622;9.958;2023-02-28T00:00:38;2.90;1.00
8152;DHT22;4117;53.622;9.958;2023-02-28T00:03:05;2.90;1.00
8152;DHT22;4117;53.622;9.958;2023-02-28T00:05:32;2.90;1.00
8152;DHT22;4117;53.622;9.958;2023-02-28T00:07:59;2.90;1.00
8152;DHT22;4117;53.622;9.958;2023-02-28T00:10:28;2.80;1.00
8152;DHT22;4117;53.622;9.958;2023-02-28T00:13:00;2.80;1.00
8152;DHT22;4117;53.622;9.958;2023-02-28T00:15:27;2.80;1.00
8152;DHT22;4117;53.622;9.958;2023-02-28T00:17:55;2.80;1.00
8152;DHT22;4117;53.622;9.958;2023-02-28T00:20:22;2.80;1.00
8152;DHT22;4117;53.622;9.958;2023-02-28T00:22:51;2.70;1.00
8152;DHT22;4117;53.622;9.958;2023-02-28T00:25:20;2.70;1.00
8152;DHT22;4117;53.622;9.958;2023-02-28T00:27:48;2.70;1.00
8152;DHT22;4117;53.622;9.958;2023-02-28T00:30:18;2.60;1.00
8152;DHT22;4117;53.622;9.958;2023-02-28T00:32:46;2.60;1.00
8152;DHT22;4117;53.622;9.958;2023-02-28T00:35:13;2.60;1.00
8152;DHT22;4117;53.622;9.958;2023-02-28T00:37:40;2.60;1.00
8152;DHT22;4117;53.622;9.958;2023-02-28T00:40:09;2.60;1.00
8152;DHT22;4117;53.622;9.958;2023-02-28T00:42:37;2.50;1.00
8152;DHT22;4117;53.622;9.958;2023-02-28T00:45:05;2.40;1.00
8152;DHT22;4117;53.622;9.958;2023-02-28T00:47:35;2.40;1.00
8152;DHT22;4117;53.622;9.958;2023-02-28T00:50:02;2.40;1.00
8152;DHT22;4117;53.622;9.958;2023-02-28T00:52:29;2.40;1.00
8152;DHT22;4117;53.622;9.958;2023-02-28T00:54:56;2.30;1.00
8152;DHT22;4117;53.622;9.958;2023-02-28T00:57:23;2.30;1.00
8152;DHT22;4117;53.622;9.958;2023-02-28T00:59:50;2.30;1.00
8152;DHT22;4117;53.622;9.958;2023-02-28T01:02:19;2.30;1.00
8152;DHT22;4117;53.622;9.958;2023-02-28T01:04:48;2.30;1.00
8152;DHT22;4117;53.622;9.958;2023-02-28T01:07:15;2.20;1.00
8152;DHT22;4117;53.622;9.958;2023-02-28T01:09:42;2.20;1.00
8152;DHT22;4117;53.622;9.958;2023-02-28T01:12:09;2.20;1.00
8152;DHT22;4117;53.622;9.958;2023-02-28T01:14:37;2.20;1.00
8152;DHT22;4117;53.622;9.958;2023-02-28T01:17:05;2.20;1.00
8152;DHT22;4117;53.622;9.958;2023-02-28T01:19:32;2.20;1.00
8152;DHT22;4117;53.622;9.958;2023-02-28T01:22:02;2.20;1.00
8152;DHT22;4117;53.622;9.958;2023-02-28T01:24:30;2.20;1.00
8152;DHT22;4117;53.622;9.958;2023-02-28T01:26:57;2.20;1.00
8152;DHT22;4117;53.622;9.958;2023-02-28T01:29:24;2.20;1.00
8152;DHT22;4117;53.622;9.958;2023-02-28T01:31:51;2.20;1.00
8152;DHT22;4117;53.622;9.958;2023-02-28T01:34:18;2.20;1.00
8152;DHT22;4117;53.622;9.958;2023-02-28T01:36:45;2.20;1.00
8152;DHT22;4117;53.622;9.958;2023-02-28T01:39:14;2.20;1.00
8152;DHT22;4117;53.622;9.958;2023-02-28T01:41:41;2.10;1.00
8152;DHT22;4117;53.622;9.958;2023-02-28T01:47:08;2.20;1.00
8152;DHT22;4117;53.622;9.958;2023-02-28T01:49:36;2.10;1.00
8152;DHT22;4117;53.622;9.958;2023-02-28T01:52:03;2.10;1.00
8152;DHT22;4117;53.622;9.958;2023-02-28T01:54:34;2.10;1.00
8152;DHT22;4117;53.622;9.958;2023-02-28T01:57:05;2.00;1.00
8152;DHT22;4117;53.622;9.958;2023-02-28T01:59:34;2.00;1.00
8152;DHT22;4117;53.622;9.958;2023-02-28T02:02:03;2.00;1.00
8152;DHT22;4117;53.622;9.958;2023-02-28T02:04:36;2.00;1.00
8152;DHT22;4117;53.622;9.958;2023-02-28T02:07:05;2.00;1.00
8152;DHT22;4117;53.622;9.958;2023-02-28T02:09:33;2.00;1.00
8152;DHT22;4117;53.622;9.958;2023-02-28T02:12:09;2.00;1.00
8152;DHT22;4117;53.622;9.958;2023-02-28T02:14:48;2.00;1.00
8152;DHT22;4117;53.622;9.958;2023-02-28T02:17:26;1.90;1.00
8152;DHT22;4117;53.622;9.958;2023-02-28T02:20:28;2.00;1.00
8152;DHT22;4117;53.622;9.958;2023-02-28T02:23:23;2.00;1.00
8152;DHT22;4117;53.622;9.958;2023-02-28T02:25:59;2.00;1.00
8152;DHT22;4117;53.622;9.958;2023-02-28T02:28:53;2.00;1.00
8152;DHT22;4117;53.622;9.958;2023-02-28T02:31:45;2.00;1.00
8152;DHT22;4117;53.622;9.958;2023-02-28T02:34:41;2.00;1.00
8152;DHT22;4117;53.622;9.958;2023-02-28T02:37:18;2.00;1.00
8152;DHT22;4117;53.622;9.958;2023-02-28T02:39:52;1.90;1.00
8152;DHT22;4117;53.622;9.958;2023-02-28T02:42:25;2.00;1.00
8152;DHT22;4117;53.622;9.958;2023-02-28T02:44:59;2.00;1.00
8152;DHT22;4117;53.622;9.958;2023-02-28T02:47:30;1.90;1.00
8152;DHT22;4117;53.622;9.958;2023-02-28T02:50:02;1.80;1.00
8152;DHT22;4117;53.622;9.958;2023-02-28T02:52:36;1.80;1.00
8152;DHT22;4117;53.622;9.958;2023-02-28T02:55:06;1.80;1.00
8152;DHT22;4117;53.622;9.958;2023-02-28T02:57:36;1.80;1.00
8152;DHT22;4117;53.622;9.958;2023-02-28T03:00:06;1.80;1.00
8152;DHT22;4117;53.622;9.958;2023-02-28T03:02:36;1.80;1.00
8152;DHT22;4117;53.622;9.958;2023-02-28T03:05:12;1.70;1.00
8152;DHT22;4117;53.622;9.958;2023-02-28T03:07:40;1.70;1.00
8152;DHT22;4117;53.622;9.958;2023-02-28T03:10:28;1.60;1.00
8152;DHT22;4117;53.622;9.958;2023-02-28T03:13:06;1.60;1.00
8152;DHT22;4117;53.622;9.958;2023-02-28T03:15:43;1.60;1.00
8152;DHT22;4117;53.622;9.958;2023-02-28T03:18:20;1.60;1.00
8152;DHT22;4117;53.622;9.958;2023-02-28T03:20:59;1.60;1.00
8152;DHT22;4117;53.622;9.958;2023-02-28T03:23:38;1.50;1.00
8152;DHT22;4117;53.622;9.958;2023-02-28T03:26:13;1.50;1.00
8152;DHT22;4117;53.622;9.958;2023-02-28T03:28:49;1.50;1.00
8152;DHT22;4117;53.622;9.958;2023-02-28T03:31:21;1.50;1.00
8152;DHT22;4117;53.622;9.958;2023-02-28T03:33:54;1.50;1.00
8152;DHT22;4117;53.622;9.958;2023-02-28T03:36:26;1.40;1.00
8152;DHT22;4117;53.622;9.958;2023-02-28T03:38:57;1.30;1.00
8152;DHT22;4117;53.622;9.958;2023-02-28T03:41:32;1.30;1.00
8152;DHT22;4117;53.622;9.958;2023-02-28T03:44:04;1.30;1.00
8152;DHT22;4117;53.622;9.958;2023-02-28T03:46:36;1.30;1.00
8152;DHT22;4117;53.622;9.958;2023-02-28T03:49:08;1.30;1.00
8152;DHT22;4117;53.622;9.958;2023-02-28T03:51:40;1.30;1.00
8152;DHT22;4117;53.622;9.958;2023-02-28T03:54:11;1.20;1.00
8152;DHT22;4117;53.622;9.958;2023-02-28T03:56:42;1.20;1.00
8152;DHT22;4117;53.622;9.958;2023-02-28T03:59:14;1.10;1.00
8152;DHT22;4117;53.622;9.958;2023-02-28T04:01:44;1.00;1.00
8152;DHT22;4117;53.622;9.958;2023-02-28T04:04:13;1.00;1.00
8152;DHT22;4117;53.622;9.958;2023-02-28T04:06:42;1.00;1.00
8152;DHT22;4117;53.622;9.958;2023-02-28T04:09:13;0.90;1.00
8152;DHT22;4117;53.622;9.958;2023-02-28T04:11:42;0.90;1.00
8152;DHT22;4117;53.622;9.958;2023-02-28T04:14:11;0.80;1.00
8152;DHT22;4117;53.622;9.958;2023-02-28T04:16:40;0.70;1.00
8152;DHT22;4117;53.622;9.958;2023-02-28T04:19:08;0.70;1.00
8152;DHT22;4117;53.622;9.958;2023-02-28T04:21:37;0.60;1.00
8152;DHT22;4117;53.622;9.958;2023-02-28T04:24:07;0.60;1.00
8152;DHT22;4117;53.622;9.958;2023-02-28T04:26:40;0.60;1.00
8152;DHT22;4117;53.622;9.958;2023-02-28T04:29:09;0.50;1.00
8152;DHT22;4117;53.622;9.958;2023-02-28T04:31:37;0.50;1.00
8152;DHT22;4117;53.622;9.958;2023-02-28T04:34:04;0.40;1.00
8152;DHT22;4117;53.622;9.958;2023-02-28T04:36:31;0.40;1.00
8152;DHT22;4117;53.622;9.958;2023-02-28T04:38:58;0.50;1.00
8152;DHT22;4117;53.622;9.958;2023-02-28T04:41:27;0.40;1.00
8152;DHT22;4117;53.622;9.958;2023-02-28T04:43:53;0.40;1.00
8152;DHT22;4117;53.622;9.958;2023-02-28T04:46:22;0.30;1.00
8152;DHT22;4117;53.622;9.958;2023-02-28T04:48:49;0.30;1.00
8152;DHT22;4117;53.622;9.958;2023-02-28T04:51:18;0.30;1.00
8152;DHT22;4117;53.622;9.958;2023-02-28T04:53:45;0.20;1.00
8152;DHT22;4117;53.622;9.958;2023-02-28T04:56:14;0.20;1.00
8152;DHT22;4117;53.622;9.958;2023-02-28T04:58:43;0.20;1.00
8152;DHT22;4117;53.622;9.958;2023-02-28T05:01:18;0.20;1.00
8152;DHT22;4117;53.622;9.958;2023-02-28T05:03:45;0.10;1.00
8152;DHT22;4117;53.622;9.958;2023-02-28T05:06:13;0.10;1.00
8152;DHT22;4117;53.622;9.958;2023-02-28T05:08:40;0.10;1.00
8152;DHT22;4117;53.622;9.958;2023-02-28T05:11:14;0.10;1.00
8152;DHT22;4117;53.622;9.958;2023-02-28T05:13:42;0.10;1.00
8152;DHT22;4117;53.622;9.958;2023-02-28T05:16:09;0.00;1.00
8152;DHT22;4117;53.622;9.958;2023-02-28T05:18:36;0.00;1.00
8152;DHT22;4117;53.622;9.958;2023-02-28T05:21:04;0.00;1.00
8152;DHT22;4117;53.622;9.958;2023-02-28T05:23:31;0.00;1.00
8152;DHT22;4117;53.622;9.958;2023-02-28T05:25:58;0.00;1.00
8152;DHT22;4117;53.622;9.958;2023-02-28T05:28:24;-0.10;1.00
8152;DHT22;4117;53.622;9.958;2023-02-28T05:30:53;-0.10;1.00
8152;DHT22;4117;53.622;9.958;2023-02-28T05:33:20;-0.10;1.00
8152;DHT22;4117;53.622;9.958;2023-02-28T05:35:47;-0.20;1.00
8152;DHT22;4117;53.622;9.958;2023-02-28T05:38:14;-0.20;1.00
8152;DHT22;4117;53.622;9.958;2023-02-28T05:40:41;-0.30;1.00
8152;DHT22;4117;53.622;9.958;2023-02-28T05:43:10;-0.30;1.00
8152;DHT22;4117;53.622;9.958;2023-02-28T05:45:37;-0.30;1.00
8152;DHT22;4117;53.622;9.958;2023-02-28T05:48:06;-0.30;1.00
8152;DHT22;4117;53.622;9.958;2023-02-28T05:50:33;-0.40;1.00
8152;DHT22;4117;53.622;9.958;2023-02-28T05:53:00;-0.40;1.00
8152;DHT22;4117;53.622;9.958;2023-02-28T05:55:27;-0.40;1.00
8152;DHT22;4117;53.622;9.958;2023-02-28T05:57:54;-0.40;1.00
8152;DHT22;4117;53.622;9.958;2023-02-28T06:00:22;-0.40;1.00
8152;DHT22;4117;53.622;9.958;2023-02-28T06:02:49;-0.40;1.00
8152;DHT22;4117;53.622;9.958;2023-02-28T06:05:20;-0.40;1.00
8152;DHT22;4117;53.622;9.958;2023-02-28T06:07:47;-0.50;1.00
8152;DHT22;4117;53.622;9.958;2023-02-28T06:10:14;-0.40;1.00
8152;DHT22;4117;53.622;9.958;2023-02-28T06:12:41;-0.40;1.00
8152;DHT22;4117;53.622;9.958;2023-02-28T06:15:12;-0.50;1.00
8152;DHT22;4117;53.622;9.958;2023-02-28T06:17:40;-0.50;1.00
8152;DHT22;4117;53.622;9.958;2023-02-28T06:20:08;-0.50;1.00
8152;DHT22;4117;53.622;9.958;2023-02-28T06:22:37;-0.50;1.00
8152;DHT22;4117;53.622;9.958;2023-02-28T06:25:06;-0.50;1.00
8152;DHT22;4117;53.622;9.958;2023-02-28T06:27:34;-0.50;1.00
8152;DHT22;4117;53.622;9.958;2023-02-28T06:30:01;-0.60;1.00
8152;DHT22;4117;53.622;9.958;2023-02-28T06:32:28;-0.60;1.00
8152;DHT22;4117;53.622;9.958;2023-02-28T06:34:55;-0.60;1.00
8152;DHT22;4117;53.622;9.958;2023-02-28T06:37:23;-0.60;1.00
8152;DHT22;4117;53.622;9.958;2023-02-28T06:39:54;-0.60;1.00
8152;DHT22;4117;53.622;9.958;2023-02-28T06:42:22;-0.60;1.00
8152;DHT22;4117;53.622;9.958;2023-02-28T06:44:51;-0.60;1.00
8152;DHT22;4117;53.622;9.958;2023-02-28T06:47:18;-0.60;1.00
8152;DHT22;4117;53.622;9.958;2023-02-28T06:49:44;-0.60;1.00
8152;DHT22;4117;53.622;9.958;2023-02-28T06:52:11;-0.60;1.00
8152;DHT22;4117;53.622;9.958;2023-02-28T06:54:39;-0.60;1.00
8152;DHT22;4117;53.622;9.958;2023-02-28T06:57:08;-0.60;1.00
8152;DHT22;4117;53.622;9.958;2023-02-28T06:59:36;-0.60;1.00
8152;DHT22;4117;53.622;9.958;2023-02-28T07:02:03;-0.60;1.00
8152;DHT22;4117;53.622;9.958;2023-02-28T07:04:31;-0.60;1.00
8152;DHT22;4117;53.622;9.958;2023-02-28T07:07:01;-0.60;1.00
8152;DHT22;4117;53.622;9.958;2023-02-28T07:09:28;-0.60;1.00
8152;DHT22;4117;53.622;9.958;2023-02-28T07:11:55;-0.60;1.00
8152;DHT22;4117;53.622;9.958;2023-02-28T07:14:24;-0.60;1.00
8152;DHT22;4117;53.622;9.958;2023-02-28T07:16:51;-0.50;1.00
8152;DHT22;4117;53.622;9.958;2023-02-28T07:19:18;-0.50;1.00
8152;DHT22;4117;53.622;9.958;2023-02-28T07:21:45;-0.50;1.00
8152;DHT22;4117;53.622;9.958;2023-02-28T07:24:12;-0.50;1.00
8152;DHT22;4117;53.622;9.958;2023-02-28T07:26:41;-0.40;2.30
8152;DHT22;4117;53.622;9.958;2023-02-28T07:29:08;-0.30;3.20
8152;DHT22;4117;53.622;9.958;2023-02-28T07:31:36;-0.20;4.10
8152;DHT22;4117;53.622;9.958;2023-02-28T07:34:04;-0.10;5.60
8152;DHT22;4117;53.622;9.958;2023-02-28T07:36:30;-0.10;4.70
8152;DHT22;4117;53.622;9.958;2023-02-28T07:38:58;0.00;2.70
8152;DHT22;4117;53.622;9.958;2023-02-28T07:41:25;0.10;4.70
8152;DHT22;4117;53.622;9.958;2023-02-28T07:43:54;0.20;3.40
8152;DHT22;4117;53.622;9.958;2023-02-28T07:46:21;0.20;4.10
8152;DHT22;4117;53.622;9.958;2023-02-28T07:48:49;0.40;6.70
8152;DHT22;4117;53.622;9.958;2023-02-28T07:51:16;0.40;7.20
8152;DHT22;4117;53.622;9.958;2023-02-28T07:53:43;0.60;4.60
8152;DHT22;4117;53.622;9.958;2023-02-28T07:56:10;0.60;5.20
8152;DHT22;4117;53.622;9.958;2023-02-28T07:58:37;0.70;5.70
8152;DHT22;4117;53.622;9.958;2023-02-28T08:01:08;0.80;3.80
8152;DHT22;4117;53.622;9.958;2023-02-28T08:03:36;0.90;4.60
8152;DHT22;4117;53.622;9.958;2023-02-28T08:06:06;0.90;1.00
8152;DHT22;4117;53.622;9.958;2023-02-28T08:08:33;1.00;1.00
8152;DHT22;4117;53.622;9.958;2023-02-28T08:11:01;1.00;1.20
8152;DHT22;4117;53.622;9.958;2023-02-28T08:13:30;1.10;4.00
8152;DHT22;4117;53.622;9.958;2023-02-28T08:15:57;1.20;1.00
8152;DHT22;4117;53.622;9.958;2023-02-28T08:18:24;1.30;1.00
8152;DHT22;4117;53.622;9.958;2023-02-28T08:20:51;1.40;1.00
8152;DHT22;4117;53.622;9.958;2023-02-28T08:23:20;1.50;1.70
8152;DHT22;4117;53.622;9.958;2023-02-28T08:25:53;1.50;1.00
8152;DHT22;4117;53.622;9.958;2023-02-28T08:28:20;1.60;1.00
8152;DHT22;4117;53.622;9.958;2023-02-28T08:30:47;1.60;1.00
8152;DHT22;4117;53.622;9.958;2023-02-28T08:33:14;1.80;1.00
8152;DHT22;4117;53.622;9.958;2023-02-28T08:35:41;1.80;1.00
8152;DHT22;4117;53.622;9.958;2023-02-28T08:38:08;1.90;1.00
8152;DHT22;4117;53.622;9.958;2023-02-28T08:40:36;1.90;1.00
8152;DHT22;4117;53.622;9.958;2023-02-28T08:43:03;2.00;1.00
8152;DHT22;4117;53.622;9.958;2023-02-28T08:45:30;2.00;1.00
8152;DHT22;4117;53.622;9.958;2023-02-28T08:47:57;2.10;1.00
8152;DHT22;4117;53.622;9.958;2023-02-28T08:50:24;2.20;1.00
8152;DHT22;4117;53.622;9.958;2023-02-28T08:52:51;2.20;1.00
8152;DHT22;4117;53.622;9.958;2023-02-28T08:55:18;2.20;1.00
8152;DHT22;4117;53.622;9.958;2023-02-28T08:57:46;2.20;1.00
8152;DHT22;4117;53.622;9.958;2023-02-28T09:00:14;2.30;1.00
8152;DHT22;4117;53.622;9.958;2023-02-28T09:02:40;2.40;1.00
8152;DHT22;4117;53.622;9.958;2023-02-28T09:05:09;2.40;1.00
8152;DHT22;4117;53.622;9.958;2023-02-28T09:07:36;2.40;1.00
8152;DHT22;4117;53.622;9.958;2023-02-28T09:10:03;2.50;1.00
8152;DHT22;4117;53.622;9.958;2023-02-28T09:12:34;2.50;1.00
8152;DHT22;4117;53.622;9.958;2023-02-28T09:15:03;2.60;1.00
8152;DHT22;4117;53.622;9.958;2023-02-28T09:17:30;2.70;1.00
8152;DHT22;4117;53.622;9.958;2023-02-28T09:19:57;2.80;1.00
8152;DHT22;4117;53.622;9.958;2023-02-28T09:22:24;2.80;1.00
8152;DHT22;4117;53.622;9.958;2023-02-28T09:24:52;2.80;1.00
8152;DHT22;4117;53.622;9.958;2023-02-28T09:27:19;3.00;1.00
8152;DHT22;4117;53.622;9.958;2023-02-28T09:29:46;2.90;1.00
8152;DHT22;4117;53.622;9.958;2023-02-28T09:32:14;3.00;1.00
8152;DHT22;4117;53.622;9.958;2023-02-28T09:34:43;3.10;1.00
8152;DHT22;4117;53.622;9.958;2023-02-28T09:37:10;3.10;1.00
8152;DHT22;4117;53.622;9.958;2023-02-28T09:39:36;3.10;1.00
8152;DHT22;4117;53.622;9.958;2023-02-28T09:42:04;3.10;1.00
8152;DHT22;4117;53.622;9.958;2023-02-28T09:44:37;3.30;1.00
8152;DHT22;4117;53.622;9.958;2023-02-28T09:47:10;3.40;1.00
8152;DHT22;4117;53.622;9.958;2023-02-28T09:49:42;3.40;1.00
8152;DHT22;4117;53.622;9.958;2023-02-28T09:52:15;3.40;1.00
8152;DHT22;4117;53.622;9.958;2023-02-28T09:54:45;3.50;1.00
8152;DHT22;4117;53.622;9.958;2023-02-28T09:57:19;3.50;1.00
8152;DHT22;4117;53.622;9.958;2023-02-28T10:00:01;3.50;1.00
8152;DHT22;4117;53.622;9.958;2023-02-28T10:03:04;3.60;1.00
8152;DHT22;4117;53.622;9.958;2023-02-28T10:05:37;3.50;1.00
8152;DHT22;4117;53.622;9.958;2023-02-28T10:08:12;3.60;1.00
8152;DHT22;4117;53.622;9.958;2023-02-28T10:10:45;3.60;1.00
8152;DHT22;4117;53.622;9.958;2023-02-28T10:13:20;3.80;1.00
8152;DHT22;4117;53.622;9.958;2023-02-28T10:15:52;3.80;1.00
8152;DHT22;4117;53.622;9.958;2023-02-28T10:18:24;4.00;1.00
8152;DHT22;4117;53.622;9.958;2023-02-28T10:20:54;3.90;1.00
8152;DHT22;4117;53.622;9.958;2023-02-28T10:23:26;4.00;1.00
8152;DHT22;4117;53.622;9.958;2023-02-28T10:25:58;4.00;1.00
8152;DHT22;4117;53.622;9.958;2023-02-28T10:28:26;4.10;1.00
8152;DHT22;4117;53.622;9.958;2023-02-28T10:30:55;3.90;1.00
8152;DHT22;4117;53.622;9.958;2023-02-28T10:33:24;3.90;1.00
8152;DHT22;4117;53.622;9.958;2023-02-28T10:35:53;4.00;1.00
8152;DHT22;4117;53.622;9.958;2023-02-28T10:38:23;4.10;1.00
8152;DHT22;4117;53.622;9.958;2023-02-28T10:40:51;4.20;1.00
8152;DHT22;4117;53.622;9.958;2023-02-28T10:43:29;4.20;1.00
8152;DHT22;4117;53.622;9.958;2023-02-28T10:46:02;4.20;1.00
8152;DHT22;4117;53.622;9.958;2023-02-28T10:48:33;4.30;1.00
8152;DHT22;4117;53.622;9.958;2023-02-28T10:51:04;4.20;1.00
8152;DHT22;4117;53.622;9.958;2023-02-28T10:53:37;4.20;1.00
8152;DHT22;4117;53.622;9.958;2023-02-28T10:56:12;4.20;1.00
8152;DHT22;4117;53.622;9.958;2023-02-28T10:58:53;4.30;1.00
8152;DHT22;4117;53.622;9.958;2023-02-28T11:01:22;4.40;1.00
8152;DHT22;4117;53.622;9.958;2023-02-28T11:03:50;4.40;1.00
8152;DHT22;4117;53.622;9.958;2023-02-28T11:06:20;4.40;1.00
8152;DHT22;4117;53.622;9.958;2023-02-28T11:08:50;4.40;1.00
8152;DHT22;4117;53.622;9.958;2023-02-28T11:11:18;4.50;1.00
8152;DHT22;4117;53.622;9.958;2023-02-28T11:13:47;4.50;1.00
8152;DHT22;4117;53.622;9.958;2023-02-28T11:16:15;4.60;1.00
8152;DHT22;4117;53.622;9.958;2023-02-28T11:18:48;4.60;1.00
8152;DHT22;4117;53.622;9.958;2023-02-28T11:21:22;4.60;1.00
8152;DHT22;4117;53.622;9.958;2023-02-28T11:24:00;4.70;1.00
8152;DHT22;4117;53.622;9.958;2023-02-28T11:26:39;4.80;1.00
8152;DHT22;4117;53.622;9.958;2023-02-28T11:29:16;5.00;1.00
8152;DHT22;4117;53.622;9.958;2023-02-28T11:32:00;5.20;1.00
8152;DHT22;4117;53.622;9.958;2023-02-28T11:34:28;5.20;1.00
8152;DHT22;4117;53.622;9.958;2023-02-28T11:36:59;5.20;1.00
8152;DHT22;4117;53.622;9.958;2023-02-28T11:39:26;5.20;1.00
8152;DHT22;4117;53.622;9.958;2023-02-28T11:42:23;5.20;1.00
8152;DHT22;4117;53.622;9.958;2023-02-28T11:45:04;5.30;1.00
8152;DHT22;4117;53.622;9.958;2023-02-28T11:47:42;5.50;1.00
8152;DHT22;4117;53.622;9.958;2023-02-28T11:50:20;5.70;1.00
8152;DHT22;4117;53.622;9.958;2023-02-28T11:52:53;5.60;1.00
8152;DHT22;4117;53.622;9.958;2023-02-28T11:55:24;5.50;1.00
8152;DHT22;4117;53.622;9.958;2023-02-28T11:58:11;5.70;1.00
8152;DHT22;4117;53.622;9.958;2023-02-28T12:01:03;6.00;1.00
8152;DHT22;4117;53.622;9.958;2023-02-28T12:03:43;6.20;1.00
8152;DHT22;4117;53.622;9.958;2023-02-28T12:06:18;6.40;1.00
8152;DHT22;4117;53.622;9.958;2023-02-28T12:08:57;6.60;1.00
8152;DHT22;4117;53.622;9.958;2023-02-28T12:11:41;6.80;1.00
8152;DHT22;4117;53.622;9.958;2023-02-28T12:14:22;6.70;1.00
8152;DHT22;4117;53.622;9.958;2023-02-28T12:17:02;6.80;1.00
8152;DHT22;4117;53.622;9.958;2023-02-28T12:19:39;7.00;1.00
8152;DHT22;4117;53.622;9.958;2023-02-28T12:22:32;7.10;1.00
8152;DHT22;4117;53.622;9.958;2023-02-28T12:25:21;7.20;1.00
8152;DHT22;4117;53.622;9.958;2023-02-28T12:27:51;7.30;1.00
8152;DHT22;4117;53.622;9.958;2023-02-28T12:30:22;7.20;1.00
8152;DHT22;4117;53.622;9.958;2023-02-28T12:32:54;7.40;1.00
8152;DHT22;4117;53.622;9.958;2023-02-28T12:35:25;7.40;1.00
8152;DHT22;4117;53.622;9.958;2023-02-28T12:37:57;7.30;1.00
8152;DHT22;4117;53.622;9.958;2023-02-28T12:40:34;7.30;1.00
8152;DHT22;4117;53.622;9.958;2023-02-28T12:43:13;7.40;1.00
8152;DHT22;4117;53.622;9.958;2023-02-28T12:45:44;7.40;1.00
8152;DHT22;4117;53.622;9.958;2023-02-28T12:48:25;7.30;1.00
8152;DHT22;4117;53.622;9.958;2023-02-28T12:50:54;7.30;1.00
8152;DHT22;4117;53.622;9.958;2023-02-28T12:53:25;7.20;1.00
8152;DHT22;4117;53.622;9.958;2023-02-28T12:56:05;7.30;1.00
8152;DHT22;4117;53.622;9.958;2023-02-28T12:58:37;7.20;1.00
8152;DHT22;4117;53.622;9.958;2023-02-28T13:01:31;7.10;1.00
8152;DHT22;4117;53.622;9.958;2023-02-28T13:04:29;7.10;1.00
8152;DHT22;4117;53.622;9.958;2023-02-28T13:07:15;7.10;1.00
8152;DHT22;4117;53.622;9.958;2023-02-28T13:09:52;7.00;1.00
8152;DHT22;4117;53.622;9.958;2023-02-28T13:12:21;7.10;1.00
8152;DHT22;4117;53.622;9.958;2023-02-28T13:14:49;7.00;1.00
8152;DHT22;4117;53.622;9.958;2023-02-28T13:17:19;6.90;1.00
8152;DHT22;4117;53.622;9.958;2023-02-28T13:19:56;6.90;1.00
8152;DHT22;4117;53.622;9.958;2023-02-28T13:22:38;6.90;1.00
8152;DHT22;4117;53.622;9.958;2023-02-28T13:34:16;6.70;1.00
8152;DHT22;4117;53.622;9.958;2023-02-28T13:36:43;6.70;1.00
8152;DHT22;4117;53.622;9.958;2023-02-28T13:39:47;6.70;1.00
8152;DHT22;4117;53.622;9.958;2023-02-28T13:42:33;6.70;1.00
8152;DHT22;4117;53.622;9.958;2023-02-28T13:45:23;6.70;1.00
8152;DHT22;4117;53.622;9.958;2023-02-28T13:47:59;6.70;1.00
8152;DHT22;4117;53.622;9.958;2023-02-28T13:50:33;6.70;1.00
8152;DHT22;4117;53.622;9.958;2023-02-28T13:53:46;6.70;1.00
8152;DHT22;4117;53.622;9.958;2023-02-28T13:56:26;6.70;1.00
8152;DHT22;4117;53.622;9.958;2023-02-28T13:58:56;6.70;1.00
8152;DHT22;4117;53.622;9.958;2023-02-28T14:01:37;6.70;1.00
8152;DHT22;4117;53.622;9.958;2023-02-28T14:04:23;6.80;1.00
8152;DHT22;4117;53.622;9.958;2023-02-28T14:06:57;6.80;1.00
8152;DHT22;4117;53.622;9.958;2023-02-28T14:09:28;6.80;1.00
8152;DHT22;4117;53.622;9.958;2023-02-28T14:11:56;6.80;1.00
8152;DHT22;4117;53.622;9.958;2023-02-28T14:14:54;6.80;1.00
8152;DHT22;4117;53.622;9.958;2023-02-28T14:17:22;6.80;1.00
8152;DHT22;4117;53.622;9.958;2023-02-28T14:19:51;6.80;1.00
8152;DHT22;4117;53.622;9.958;2023-02-28T14:22:36;6.90;1.00
8152;DHT22;4117;53.622;9.958;2023-02-28T14:25:15;6.90;1.00
8152;DHT22;4117;53.622;9.958;2023-02-28T14:27:48;6.90;1.00
8152;DHT22;4117;53.622;9.958;2023-02-28T14:30:42;6.90;1.00
8152;DHT22;4117;53.622;9.958;2023-02-28T14:33:32;7.00;1.00
8152;DHT22;4117;53.622;9.958;2023-02-28T14:36:10;7.00;1.00
8152;DHT22;4117;53.622;9.958;2023-02-28T14:38:43;7.00;1.00
8152;DHT22;4117;53.622;9.958;2023-02-28T14:41:21;7.00;1.00
8152;DHT22;4117;53.622;9.958;2023-02-28T14:43:53;7.00;1.00
8152;DHT22;4117;53.622;9.958;2023-02-28T14:46:21;7.00;1.00
8152;DHT22;4117;53.622;9.958;2023-02-28T14:48:50;7.10;1.00
8152;DHT22;4117;53.622;9.958;2023-02-28T14:51:23;7.10;1.00
8152;DHT22;4117;53.622;9.958;2023-02-28T14:53:52;7.20;1.00
8152;DHT22;4117;53.622;9.958;2023-02-28T14:56:21;7.20;1.00
8152;DHT22;4117;53.622;9.958;2023-02-28T14:58:52;7.20;1.00
8152;DHT22;4117;53.622;9.958;2023-02-28T15:01:21;7.30;1.00
8152;DHT22;4117;53.622;9.958;2023-02-28T15:03:57;7.30;1.00
8152;DHT22;4117;53.622;9.958;2023-02-28T15:06:26;7.30;1.00
8152;DHT22;4117;53.622;9.958;2023-02-28T15:09:08;7.30;1.00
8152;DHT22;4117;53.622;9.958;2023-02-28T15:11:35;7.20;1.00
8152;DHT22;4117;53.622;9.958;2023-02-28T15:14:04;7.30;1.00
8152;DHT22;4117;53.622;9.958;2023-02-28T15:16:33;7.20;1.00
8152;DHT22;4117;53.622;9.958;2023-02-28T15:19:02;7.20;1.00
8152;DHT22;4117;53.622;9.958;2023-02-28T15:21:34;7.20;1.00
8152;DHT22;4117;53.622;9.958;2023-02-28T15:24:05;7.20;1.00
8152;DHT22;4117;53.622;9.958;2023-02-28T15:26:38;7.20;1.00
8152;DHT22;4117;53.622;9.958;2023-02-28T15:29:07;7.20;1.00
8152;DHT22;4117;53.622;9.958;2023-02-28T15:31:40;7.20;1.00
8152;DHT22;4117;53.622;9.958;2023-02-28T15:34:18;7.20;1.00
8152;DHT22;4117;53.622;9.958;2023-02-28T15:36:48;7.20;1.00
8152;DHT22;4117;53.622;9.958;2023-02-28T15:39:20;7.20;1.00
8152;DHT22;4117;53.622;9.958;2023-02-28T15:41:47;7.20;1.00
8152;DHT22;4117;53.622;9.958;2023-02-28T15:44:24;7.20;1.00
8152;DHT22;4117;53.622;9.958;2023-02-28T15:46:59;7.10;1.00
8152;DHT22;4117;53.622;9.958;2023-02-28T15:49:28;7.10;1.00
8152;DHT22;4117;53.622;9.958;2023-02-28T15:51:59;7.10;1.00
8152;DHT22;4117;53.622;9.958;2023-02-28T15:54:28;7.10;1.00
8152;DHT22;4117;53.622;9.958;2023-02-28T15:56:57;7.10;1.00
8152;DHT22;4117;53.622;9.958;2023-02-28T15:59:28;7.10;1.00
8152;DHT22;4117;53.622;9.958;2023-02-28T16:02:13;7.10;1.00
8152;DHT22;4117;53.622;9.958;2023-02-28T16:05:01;7.00;1.00
8152;DHT22;4117;53.622;9.958;2023-02-28T16:07:29;7.00;1.00
8152;DHT22;4117;53.622;9.958;2023-02-28T16:09:56;6.90;1.00
8152;DHT22;4117;53.622;9.958;2023-02-28T16:12:27;6.90;1.00
8152;DHT22;4117;53.622;9.958;2023-02-28T16:14:56;6.90;1.00
8152;DHT22;4117;53.622;9.958;2023-02-28T16:17:25;6.90;1.00
8152;DHT22;4117;53.622;9.958;2023-02-28T16:19:53;6.80;1.00
8152;DHT22;4117;53.622;9.958;2023-02-28T16:22:20;6.80;1.00
8152;DHT22;4117;53.622;9.958;2023-02-28T16:24:49;6.80;1.00
8152;DHT22;4117;53.622;9.958;2023-02-28T16:27:18;6.80;1.00
8152;DHT22;4117;53.622;9.958;2023-02-28T16:29:47;6.70;1.00
8152;DHT22;4117;53.622;9.958;2023-02-28T16:32:15;6.60;1.00
8152;DHT22;4117;53.622;9.958;2023-02-28T16:34:43;6.50;1.00
8152;DHT22;4117;53.622;9.958;2023-02-28T16:37:12;6.40;1.00
8152;DHT22;4117;53.622;9.958;2023-02-28T16:39:40;6.30;1.00
8152;DHT22;4117;53.622;9.958;2023-02-28T16:42:15;6.20;1.00
8152;DHT22;4117;53.622;9.958;2023-02-28T16:44:42;6.10;1.00
8152;DHT22;4117;53.622;9.958;2023-02-28T16:47:10;6.00;1.00
8152;DHT22;4117;53.622;9.958;2023-02-28T16:49:38;5.90;1.00
8152;DHT22;4117;53.622;9.958;2023-02-28T16:52:07;5.80;1.00
8152;DHT22;4117;53.622;9.958;2023-02-28T16:54:34;5.70;1.00
8152;DHT22;4117;53.622;9.958;2023-02-28T16:57:02;5.60;1.00
8152;DHT22;4117;53.622;9.958;2023-02-28T16:59:31;5.50;1.00
8152;DHT22;4117;53.622;9.958;2023-02-28T17:01:58;5.40;1.00
8152;DHT22;4117;53.622;9.958;2023-02-28T17:04:26;5.30;1.00
8152;DHT22;4117;53.622;9.958;2023-02-28T17:06:53;5.20;1.00
8152;DHT22;4117;53.622;9.958;2023-02-28T17:09:22;5.10;1.00
8152;DHT22;4117;53.622;9.958;2023-02-28T17:11:50;5.00;1.00